Time;durP1;ratioP1;P1;durP2;ratioP2;P2;SDS_P1;SDS_P2;PMS_P1;PMS_P2;Temp;Humidity;BMP_temperature;BMP_pressure;BME280_temperature;BME280_humidity;BME280_pressure;Samples;Min_cycle;Max_cycle;Signal;HPM_P1;HPM_P2
2024/04/18 00:01:37;;;;;;;2.10;0.70;;;7.10;93.50;;;;;;5352710;26;20004;-81
2024/04/18 00:04:02;;;;;;;1.90;0.80;;;7.10;93.50;;;;;;5352828;26;20007;-82
2024/04/18 00:06:29;;;;;;;1.83;0.80;;;7.10;93.80;;;;;;5383497;26;19996;-82
2024/04/18 00:08:54;;;;;;;1.77;0.90;;;7.10;93.60;;;;;;5371811;21;19999;-81
2024/04/18 00:11:20;;;;;;;2.30;0.90;;;7.10;93.60;;;;;;5418931;26;20113;-83
2024/04/18 00:13:45;;;;;;;3.63;1.10;;;7.10;93.70;;;;;;5419015;26;20011;-83
2024/04/18 00:16:11;;;;;;;2.03;1.00;;;7.10;93.80;;;;;;5446723;26;20003;-83
2024/04/18 00:18:37;;;;;;;1.93;0.80;;;7.10;93.90;;;;;;5447006;26;20011;-83
2024/04/18 00:21:02;;;;;;;1.87;0.90;;;7.10;93.90;;;;;;5446924;26;20003;-83
2024/04/18 00:23:28;;;;;;;1.97;0.80;;;7.10;93.80;;;;;;5418619;26;20000;-83
2024/04/18 00:25:54;;;;;;;1.93;0.70;;;7.10;93.90;;;;;;5418836;26;20015;-85
2024/04/18 00:28:19;;;;;;;2.87;0.77;;;7.10;93.90;;;;;;5418636;26;20003;-84
2024/04/18 00:30:45;;;;;;;7.43;1.00;;;7.10;94.00;;;;;;5416848;26;20003;-84
2024/04/18 00:33:11;;;;;;;3.13;0.70;;;7.10;94.00;;;;;;5418641;26;20028;-84
2024/04/18 00:35:40;;;;;;;4.10;1.10;;;7.00;94.00;;;;;;5416642;26;19999;-83
2024/04/18 00:38:05;;;;;;;1.77;0.77;;;7.00;94.00;;;;;;5446865;26;20011;-83
2024/04/18 00:40:31;;;;;;;3.50;1.10;;;7.00;94.10;;;;;;5446713;26;20007;-83
2024/04/18 00:42:58;;;;;;;3.33;1.00;;;7.10;94.10;;;;;;5418560;26;20018;-83
2024/04/18 00:45:23;;;;;;;3.60;1.00;;;7.00;94.20;;;;;;5418257;26;20016;-83
2024/04/18 00:47:49;;;;;;;3.17;0.90;;;7.00;94.30;;;;;;5446609;26;20014;-83
2024/04/18 00:50:16;;;;;;;2.90;1.00;;;7.00;94.30;;;;;;5418529;26;19999;-83
2024/04/18 00:52:42;;;;;;;2.77;0.93;;;7.00;94.40;;;;;;5418171;26;19995;-83
2024/04/18 00:55:09;;;;;;;1.47;0.80;;;7.00;94.50;;;;;;5418434;26;20004;-83
2024/04/18 00:57:37;;;;;;;2.23;0.80;;;7.00;94.50;;;;;;5418199;26;20000;-84
2024/04/18 01:00:04;;;;;;;2.13;0.80;;;7.10;94.50;;;;;;5418285;26;20032;-83
2024/04/18 01:02:30;;;;;;;2.57;0.80;;;7.00;94.50;;;;;;5418313;26;20009;-82
2024/04/18 01:04:57;;;;;;;1.50;0.70;;;7.00;94.80;;;;;;5418236;26;20000;-83
2024/04/18 01:07:24;;;;;;;2.60;1.00;;;6.90;94.50;;;;;;5418239;26;20489;-83
2024/04/18 01:09:50;;;;;;;2.60;0.97;;;7.00;94.60;;;;;;5417418;26;20046;-83
2024/04/18 01:12:15;;;;;;;3.17;0.90;;;7.00;94.60;;;;;;5446121;26;20014;-83
2024/04/18 01:14:41;;;;;;;2.93;0.73;;;6.90;94.60;;;;;;5418282;26;20000;-82
2024/04/18 01:17:07;;;;;;;2.93;1.40;;;6.90;94.60;;;;;;5418033;26;20405;-83
2024/04/18 01:19:34;;;;;;;3.57;0.77;;;6.90;94.70;;;;;;5444469;26;20018;-84
2024/04/18 01:22:00;;;;;;;2.80;0.80;;;6.90;94.70;;;;;;5446178;26;20000;-83
2024/04/18 01:24:26;;;;;;;3.47;0.80;;;6.90;94.70;;;;;;5446216;26;20012;-83
2024/04/18 01:26:52;;;;;;;2.50;0.90;;;6.80;94.80;;;;;;5416187;26;20003;-84
2024/04/18 01:29:17;;;;;;;2.67;0.80;;;6.90;94.80;;;;;;5417919;26;20011;-82
2024/04/18 01:31:43;;;;;;;3.87;0.90;;;6.90;94.80;;;;;;5417961;26;20018;-83
2024/04/18 01:34:09;;;;;;;2.67;0.80;;;6.90;94.80;;;;;;5445613;26;20359;-83
2024/04/18 01:36:34;;;;;;;2.27;0.73;;;6.80;94.80;;;;;;5445680;26;20003;-83
2024/04/18 01:39:00;;;;;;;2.50;0.70;;;6.70;94.70;;;;;;5415961;26;19996;-83
2024/04/18 01:41:25;;;;;;;2.70;0.70;;;6.80;94.70;;;;;;5417932;26;20004;-83
2024/04/18 01:43:51;;;;;;;2.07;0.80;;;6.70;94.60;;;;;;5417763;26;20475;-83
2024/04/18 01:46:17;;;;;;;2.67;0.70;;;6.60;94.60;;;;;;5417765;26;20455;-83
2024/04/18 01:48:45;;;;;;;2.03;0.60;;;6.60;94.70;;;;;;5415873;26;20004;-82
2024/04/18 01:51:12;;;;;;;3.80;0.80;;;6.50;94.60;;;;;;5417295;26;20387;-83
2024/04/18 01:53:37;;;;;;;2.20;0.80;;;6.50;94.70;;;;;;5417701;26;20004;-83
2024/04/18 01:56:03;;;;;;;1.83;0.70;;;6.40;94.70;;;;;;5417434;26;20015;-82
2024/04/18 01:58:29;;;;;;;1.90;1.00;;;6.40;94.70;;;;;;5417325;26;20015;-82
2024/04/18 02:00:54;;;;;;;2.87;0.80;;;6.30;94.70;;;;;;5418002;26;20408;-83
2024/04/18 02:03:20;;;;;;;1.67;0.60;;;6.20;94.70;;;;;;5417686;26;19999;-83
2024/04/18 02:05:46;;;;;;;2.47;0.80;;;6.10;94.70;;;;;;5445484;26;20008;-83
2024/04/18 02:08:12;;;;;;;5.50;0.80;;;6.10;94.80;;;;;;5444848;26;20019;-83
2024/04/18 02:10:37;;;;;;;1.83;0.80;;;6.00;94.80;;;;;;5445222;26;20011;-83
2024/04/18 02:13:03;;;;;;;2.73;0.80;;;5.90;94.90;;;;;;5445026;26;20466;-82
2024/04/18 02:15:29;;;;;;;2.70;0.80;;;5.90;94.90;;;;;;5415296;26;20000;-83
2024/04/18 02:17:55;;;;;;;4.20;0.90;;;5.80;95.00;;;;;;5444737;26;20343;-83
2024/04/18 02:20:21;;;;;;;2.03;0.80;;;5.80;95.10;;;;;;5445409;26;19995;-83
2024/04/18 02:22:47;;;;;;;2.83;0.73;;;5.70;95.10;;;;;;5445085;26;20045;-83
2024/04/18 02:25:12;;;;;;;1.47;0.77;;;5.70;95.20;;;;;;5417031;26;20101;-82
2024/04/18 02:27:43;;;;;;;2.27;0.77;;;5.60;95.20;;;;;;5417040;26;20007;-83
2024/04/18 02:30:10;;;;;;;2.67;1.10;;;5.60;95.30;;;;;;5416669;26;20523;-83
2024/04/18 02:32:36;;;;;;;3.80;1.10;;;5.50;95.30;;;;;;5420433;26;20007;-83
2024/04/18 02:35:03;;;;;;;3.50;1.17;;;5.50;95.40;;;;;;5448874;26;19995;-83
2024/04/18 02:37:28;;;;;;;3.03;1.10;;;5.40;95.40;;;;;;5420344;26;20003;-83
2024/04/18 02:39:54;;;;;;;2.97;1.10;;;5.40;95.50;;;;;;5420204;26;20032;-83
2024/04/18 02:42:20;;;;;;;5.13;1.27;;;5.40;95.80;;;;;;5420202;26;20324;-83
2024/04/18 02:44:46;;;;;;;4.63;1.40;;;5.30;95.60;;;;;;5440387;26;20015;-82
2024/04/18 02:47:12;;;;;;;2.87;1.13;;;5.30;95.60;;;;;;5384008;26;20012;-82
2024/04/18 02:49:37;;;;;;;3.50;0.93;;;5.20;95.70;;;;;;5411812;26;20440;-82
2024/04/18 02:52:04;;;;;;;4.27;1.37;;;5.20;95.90;;;;;;5384527;26;20023;-82
2024/04/18 02:54:30;;;;;;;4.13;1.10;;;5.20;96.00;;;;;;5412177;26;20028;-82
2024/04/18 02:56:55;;;;;;;4.17;1.10;;;5.10;96.00;;;;;;5412224;26;20004;-82
2024/04/18 02:59:21;;;;;;;2.83;1.00;;;5.10;96.10;;;;;;5412042;26;20051;-82
2024/04/18 03:01:47;;;;;;;2.57;1.07;;;5.00;96.20;;;;;;5382488;26;20019;-82
2024/04/18 03:04:13;;;;;;;3.33;1.20;;;5.00;96.30;;;;;;5384316;26;20023;-82
2024/04/18 03:06:39;;;;;;;2.10;0.97;;;4.90;96.30;;;;;;5412045;26;20444;-82
2024/04/18 03:09:04;;;;;;;4.07;1.33;;;5.00;96.40;;;;;;5411606;26;20073;-81
2024/04/18 03:11:30;;;;;;;2.90;1.30;;;4.90;96.40;;;;;;5384378;26;20474;-81
2024/04/18 03:13:55;;;;;;;2.80;1.07;;;5.00;96.40;;;;;;5412063;26;20448;-82
2024/04/18 03:16:21;;;;;;;3.07;1.27;;;4.90;96.40;;;;;;5384306;26;20004;-82
2024/04/18 03:18:47;;;;;;;2.77;1.30;;;4.90;96.50;;;;;;5384256;26;20000;-81
2024/04/18 03:21:12;;;;;;;3.90;1.80;;;4.90;96.60;;;;;;5384394;26;20055;-81
2024/04/18 03:23:38;;;;;;;4.00;1.27;;;4.80;96.60;;;;;;5384510;26;20015;-83
2024/04/18 03:26:04;;;;;;;4.73;1.30;;;4.80;97.00;;;;;;5382122;26;20054;-82
2024/04/18 03:28:29;;;;;;;2.57;0.90;;;4.80;96.80;;;;;;5411985;26;20415;-83
2024/04/18 03:30:55;;;;;;;2.20;1.00;;;4.80;96.90;;;;;;5381802;26;20364;-83
2024/04/18 03:33:21;;;;;;;2.23;0.90;;;4.70;96.90;;;;;;5383803;26;20016;-83
2024/04/18 03:35:46;;;;;;;4.13;1.20;;;4.70;97.00;;;;;;5382084;26;20466;-84
2024/04/18 03:38:12;;;;;;;3.53;1.03;;;4.70;97.00;;;;;;5411839;26;20000;-83
2024/04/18 03:40:38;;;;;;;3.60;1.00;;;4.70;97.10;;;;;;5411621;26;20000;-83
2024/04/18 03:43:04;;;;;;;4.30;1.00;;;4.70;97.10;;;;;;5382655;26;20000;-82
2024/04/18 03:45:30;;;;;;;5.13;1.60;;;4.70;97.20;;;;;;5383744;26;20464;-82
2024/04/18 03:47:56;;;;;;;4.90;1.30;;;4.60;97.20;;;;;;5383798;26;20019;-83
2024/04/18 03:50:21;;;;;;;3.33;1.40;;;4.60;97.30;;;;;;5383792;26;20000;-83
2024/04/18 03:52:47;;;;;;;3.90;1.10;;;4.60;97.40;;;;;;5411744;26;20004;-83
2024/04/18 03:55:13;;;;;;;4.17;1.23;;;4.60;97.40;;;;;;5411588;26;20004;-83
2024/04/18 03:57:38;;;;;;;2.73;1.10;;;4.50;97.50;;;;;;5382389;26;20019;-84
2024/04/18 04:00:04;;;;;;;3.90;1.20;;;4.50;97.60;;;;;;5383715;26;20018;-83
2024/04/18 04:02:32;;;;;;;3.27;1.40;;;4.50;97.60;;;;;;5411344;26;20000;-83
2024/04/18 04:04:58;;;;;;;6.20;1.17;;;4.40;97.70;;;;;;5411256;26;20004;-83
2024/04/18 04:07:25;;;;;;;7.67;1.23;;;4.40;97.70;;;;;;5411177;26;20015;-83
2024/04/18 04:09:50;;;;;;;5.60;1.17;;;4.40;97.80;;;;;;5383123;26;20019;-82
2024/04/18 04:12:16;;;;;;;2.97;1.10;;;4.40;97.80;;;;;;5411159;26;20004;-82
2024/04/18 04:14:42;;;;;;;3.70;1.20;;;4.30;97.90;;;;;;5411507;26;20000;-83
2024/04/18 04:17:11;;;;;;;5.93;1.33;;;4.30;97.90;;;;;;5381645;26;20452;-83
2024/04/18 04:19:37;;;;;;;2.77;1.20;;;4.30;98.00;;;;;;5383860;26;20008;-83
2024/04/18 04:22:02;;;;;;;3.20;1.13;;;4.30;98.00;;;;;;5383423;26;20085;-83
2024/04/18 04:24:28;;;;;;;3.37;1.10;;;4.30;98.10;;;;;;5382914;26;20000;-83
2024/04/18 04:26:54;;;;;;;2.97;1.27;;;4.30;98.20;;;;;;5383485;26;20352;-83
2024/04/18 04:29:20;;;;;;;3.37;1.27;;;4.30;98.20;;;;;;5381346;26;20004;-82
2024/04/18 04:31:45;;;;;;;2.47;1.10;;;4.20;98.30;;;;;;5410534;26;20345;-82
2024/04/18 04:34:12;;;;;;;4.77;1.03;;;4.20;98.30;;;;;;5381309;26;20008;-83
2024/04/18 04:36:38;;;;;;;3.37;1.00;;;4.20;98.40;;;;;;5411221;26;20004;-83
2024/04/18 04:39:03;;;;;;;4.50;1.47;;;4.20;98.50;;;;;;5383481;26;20000;-85
2024/04/18 04:41:29;;;;;;;7.30;1.47;;;4.10;98.50;;;;;;5383493;26;20015;-85
2024/04/18 04:43:54;;;;;;;2.80;1.30;;;4.20;98.60;;;;;;5380947;26;20402;-84
2024/04/18 04:46:20;;;;;;;4.80;1.37;;;4.20;98.70;;;;;;5411497;26;20015;-85
2024/04/18 04:48:46;;;;;;;3.37;1.20;;;4.20;99.00;;;;;;5416267;26;19991;-84
2024/04/18 04:51:13;;;;;;;3.10;1.20;;;4.20;98.80;;;;;;5416008;26;20354;-84
2024/04/18 04:53:39;;;;;;;3.40;1.30;;;4.20;98.90;;;;;;5418802;26;20072;-84
2024/04/18 04:56:05;;;;;;;3.17;1.30;;;4.20;99.00;;;;;;5418967;26;20003;-84
2024/04/18 04:58:30;;;;;;;3.27;1.53;;;4.20;99.10;;;;;;5412751;26;19995;-84
2024/04/18 05:00:56;;;;;;;5.80;1.83;;;4.20;99.20;;;;;;5415734;26;20080;-84
2024/04/18 05:03:22;;;;;;;5.10;1.70;;;4.20;99.20;;;;;;5407578;26;20040;-84
2024/04/18 05:05:48;;;;;;;5.93;1.60;;;4.30;99.40;;;;;;5380832;26;20440;-85
2024/04/18 05:08:14;;;;;;;3.90;1.60;;;4.30;99.50;;;;;;5397052;26;20004;-86
2024/04/18 05:10:45;;;;;;;4.17;1.50;;;4.40;99.50;;;;;;5416479;26;20015;-86
2024/04/18 05:13:15;;;;;;;2.70;1.10;;;4.40;99.60;;;;;;5417323;26;19999;-85
2024/04/18 05:15:42;;;;;;;4.93;1.20;;;4.40;99.60;;;;;;5417536;26;20077;-83
2024/04/18 05:18:09;;;;;;;5.13;1.33;;;4.40;99.60;;;;;;5418625;26;20483;-83
2024/04/18 05:20:37;;;;;;;5.97;1.30;;;4.40;99.70;;;;;;5481080;26;20003;-83
2024/04/18 05:23:04;;;;;;;4.43;1.70;;;4.50;99.80;;;;;;5422928;26;20050;-83
2024/04/18 05:25:30;;;;;;;5.17;1.90;;;4.50;99.90;;;;;;5425973;26;20004;-83
2024/04/18 05:28:04;;;;;;;5.73;1.80;;;4.50;99.90;;;;;;5415996;26;20022;-83
2024/04/18 05:33:15;;;;;;;4.80;1.90;;;4.60;99.90;;;;;;5415609;26;20342;-78
2024/04/18 05:35:41;;;;;;;6.80;2.00;;;4.70;99.90;;;;;;5413044;26;20057;-79
2024/04/18 05:38:06;;;;;;;6.97;1.60;;;4.70;99.90;;;;;;5415605;26;20008;-78
2024/04/18 05:40:32;;;;;;;4.50;1.50;;;4.70;99.90;;;;;;5415310;26;20008;-79
2024/04/18 05:42:58;;;;;;;7.90;1.50;;;4.80;99.90;;;;;;5416954;26;20011;-79
2024/04/18 05:45:23;;;;;;;4.50;1.17;;;4.80;99.90;;;;;;5416883;26;19999;-79
2024/04/18 05:47:49;;;;;;;5.33;1.40;;;4.90;99.90;;;;;;5416921;26;20011;-79
2024/04/18 05:50:15;;;;;;;5.40;1.53;;;4.90;99.90;;;;;;5414906;26;20335;-81
2024/04/18 05:52:40;;;;;;;4.57;1.80;;;4.90;99.90;;;;;;5415882;26;20510;-80
2024/04/18 05:55:06;;;;;;;5.60;1.10;;;4.90;99.90;;;;;;5415401;26;20335;-80
2024/04/18 05:57:31;;;;;;;2.73;1.10;;;5.00;99.90;;;;;;5416846;26;20011;-80
2024/04/18 05:59:57;;;;;;;4.10;1.43;;;5.00;99.90;;;;;;5445337;26;20006;-80
2024/04/18 06:02:23;;;;;;;5.63;1.73;;;5.00;99.90;;;;;;5416704;26;19995;-80
2024/04/18 06:04:48;;;;;;;3.63;1.10;;;5.00;99.90;;;;;;5414170;26;20030;-80
2024/04/18 06:07:14;;;;;;;7.07;1.47;;;5.10;99.90;;;;;;5416515;26;20000;-80
2024/04/18 06:09:40;;;;;;;4.07;1.20;;;5.20;99.90;;;;;;5444680;26;20006;-80
2024/04/18 06:12:06;;;;;;;5.00;1.07;;;5.20;99.90;;;;;;5416004;26;20373;-79
2024/04/18 06:14:31;;;;;;;5.23;1.30;;;5.30;99.90;;;;;;5414201;26;19991;-82
2024/04/18 06:16:58;;;;;;;3.73;1.10;;;5.40;99.90;;;;;;5416829;26;19995;-82
2024/04/18 06:19:23;;;;;;;8.77;1.27;;;5.50;99.90;;;;;;5415119;26;20014;-83
2024/04/18 06:21:49;;;;;;;4.07;1.03;;;5.50;99.90;;;;;;5416777;26;20000;-82
2024/04/18 06:24:14;;;;;;;4.53;1.40;;;5.60;99.90;;;;;;5416303;26;19999;-81
2024/04/18 06:26:40;;;;;;;7.03;1.50;;;5.60;99.90;;;;;;5414452;26;20461;-82
2024/04/18 06:29:06;;;;;;;5.27;1.43;;;5.70;99.90;;;;;;5416637;26;19996;-82
2024/04/18 06:31:31;;;;;;;4.33;1.20;;;5.80;99.90;;;;;;5416495;26;19996;-82
2024/04/18 06:33:57;;;;;;;4.23;1.20;;;5.90;99.90;;;;;;5416601;26;20014;-80
2024/04/18 06:36:23;;;;;;;4.53;1.27;;;5.90;99.90;;;;;;5414614;26;20017;-79
2024/04/18 06:38:48;;;;;;;4.40;1.60;;;6.00;99.90;;;;;;5414969;26;20000;-79
2024/04/18 06:41:14;;;;;;;5.10;1.30;;;6.00;99.90;;;;;;5444934;26;20447;-80
2024/04/18 06:43:40;;;;;;;9.53;1.77;;;6.10;99.90;;;;;;5414796;26;19996;-80
2024/04/18 06:46:05;;;;;;;3.90;1.27;;;6.20;99.90;;;;;;5414113;26;20075;-79
2024/04/18 06:48:31;;;;;;;4.90;0.90;;;6.20;99.90;;;;;;5416508;26;20013;-80
2024/04/18 06:50:56;;;;;;;6.63;1.80;;;6.30;99.90;;;;;;5414373;26;20014;-80
2024/04/18 06:53:22;;;;;;;4.33;1.30;;;6.30;99.90;;;;;;5414314;26;20072;-81
2024/04/18 06:55:49;;;;;;;3.30;1.27;;;6.40;99.90;;;;;;5415871;26;19999;-81
2024/04/18 06:58:14;;;;;;;4.73;1.27;;;6.50;99.90;;;;;;5416495;26;19999;-81
2024/04/18 07:00:41;;;;;;;5.87;1.10;;;6.60;99.90;;;;;;5416154;26;19996;-81
2024/04/18 07:03:08;;;;;;;5.40;1.20;;;6.60;99.90;;;;;;5416451;26;20072;-82
2024/04/18 07:05:33;;;;;;;4.33;1.00;;;6.70;99.90;;;;;;5416277;26;20094;-83
2024/04/18 07:07:59;;;;;;;9.47;1.30;;;6.90;99.90;;;;;;5415565;26;20004;-83
2024/04/18 07:10:25;;;;;;;4.23;0.90;;;6.80;99.90;;;;;;5416157;26;20451;-83
2024/04/18 07:12:50;;;;;;;4.23;0.90;;;6.90;99.90;;;;;;5414463;26;20007;-83
2024/04/18 07:15:16;;;;;;;4.77;0.83;;;6.90;99.90;;;;;;5416183;26;19999;-81
2024/04/18 07:17:43;;;;;;;4.10;1.17;;;7.00;99.90;;;;;;5415119;26;20014;-82
2024/04/18 07:20:09;;;;;;;5.57;1.20;;;7.10;99.90;;;;;;5419675;26;20489;-82
2024/04/18 07:22:37;;;;;;;2.37;0.80;;;7.10;99.90;;;;;;5419844;26;20066;-83
2024/04/18 07:25:04;;;;;;;3.13;0.60;;;7.20;99.90;;;;;;5417830;26;19999;-83
2024/04/18 07:27:30;;;;;;;2.63;1.10;;;7.30;99.90;;;;;;5448099;26;20014;-83
2024/04/18 07:29:56;;;;;;;3.50;0.80;;;7.30;99.90;;;;;;5417831;26;19995;-81
2024/04/18 07:32:22;;;;;;;3.83;1.10;;;7.50;99.90;;;;;;5422592;26;20474;-81
2024/04/18 07:34:47;;;;;;;2.73;0.80;;;7.50;99.90;;;;;;5421614;26;20351;-80
2024/04/18 07:37:13;;;;;;;5.57;1.10;;;7.60;99.90;;;;;;5418988;26;20320;-81
2024/04/18 07:39:39;;;;;;;3.87;0.90;;;7.70;99.90;;;;;;5419629;26;20010;-81
2024/04/18 07:42:05;;;;;;;3.17;0.80;;;7.70;99.90;;;;;;5448956;26;19999;-79
2024/04/18 07:44:31;;;;;;;3.27;0.90;;;7.80;99.90;;;;;;5418138;26;20003;-80
2024/04/18 07:46:57;;;;;;;5.10;0.90;;;7.90;99.90;;;;;;5419263;26;19995;-81
2024/04/18 07:49:23;;;;;;;4.57;0.87;;;7.90;99.90;;;;;;5420359;26;20459;-83
2024/04/18 07:51:48;;;;;;;4.23;0.90;;;8.00;99.90;;;;;;5417173;26;20011;-83
2024/04/18 07:54:20;;;;;;;4.60;1.20;;;8.10;99.90;;;;;;5419733;26;19999;-84
2024/04/18 07:56:45;;;;;;;4.03;0.93;;;8.10;99.90;;;;;;5447540;26;20006;-82
2024/04/18 07:59:13;;;;;;;3.33;0.80;;;8.20;99.90;;;;;;5417021;26;20347;-82
2024/04/18 08:01:40;;;;;;;3.00;0.60;;;8.40;99.90;;;;;;5417278;26;20443;-81
2024/04/18 08:04:06;;;;;;;3.27;0.77;;;8.40;99.90;;;;;;5417220;26;20010;-82
2024/04/18 08:06:31;;;;;;;3.23;0.87;;;8.50;99.90;;;;;;5417251;26;19999;-82
2024/04/18 08:08:59;;;;;;;2.23;0.60;;;8.60;99.90;;;;;;5418296;26;20014;-81
2024/04/18 08:11:25;;;;;;;4.07;1.10;;;8.70;99.90;;;;;;5422653;26;20354;-79
2024/04/18 08:13:51;;;;;;;3.07;1.00;;;8.70;99.90;;;;;;5453004;26;19996;-80
2024/04/18 08:16:17;;;;;;;4.13;0.70;;;8.80;99.90;;;;;;5419155;26;20435;-82
2024/04/18 08:18:42;;;;;;;3.43;0.40;;;8.90;99.90;;;;;;5420145;26;19996;-80
2024/04/18 08:21:08;;;;;;;1.87;0.60;;;9.00;99.90;;;;;;5417360;26;20010;-79
2024/04/18 08:23:34;;;;;;;2.17;0.50;;;9.10;99.90;;;;;;5420797;26;19999;-81
2024/04/18 08:26:00;;;;;;;2.53;0.70;;;9.10;99.90;;;;;;5420175;26;20380;-79
2024/04/18 08:28:26;;;;;;;1.17;0.50;;;9.30;99.90;;;;;;5418059;26;19999;-81
2024/04/18 08:30:53;;;;;;;1.38;0.40;;;9.40;99.90;;;;;;5447852;26;20080;-82
2024/04/18 08:33:19;;;;;;;1.23;0.32;;;9.50;99.80;;;;;;5418926;26;20014;-81
2024/04/18 08:35:45;;;;;;;2.97;0.40;;;9.60;99.60;;;;;;5417687;26;19995;-81
2024/04/18 08:38:12;;;;;;;1.67;0.40;;;9.80;99.40;;;;;;5417612;26;20000;-83
2024/04/18 08:40:38;;;;;;;7.13;0.40;;;9.90;99.00;;;;;;5419409;26;20009;-82
2024/04/18 08:43:04;;;;;;;2.30;0.30;;;10.00;98.60;;;;;;5418262;26;20061;-81
2024/04/18 08:45:35;;;;;;;2.63;0.30;;;10.10;98.20;;;;;;5421409;26;19996;-81
2024/04/18 08:48:02;;;;;;;2.28;0.30;;;10.30;97.80;;;;;;5417248;26;20355;-84
2024/04/18 08:50:30;;;;;;;1.92;0.43;;;10.40;97.40;;;;;;5416435;26;20010;-82
2024/04/18 08:52:57;;;;;;;2.45;0.50;;;10.50;97.00;;;;;;5418652;26;19995;-82
2024/04/18 08:55:23;;;;;;;2.70;0.85;;;10.60;96.60;;;;;;5418953;26;19999;-82
2024/04/18 08:57:53;;;;;;;0.85;0.40;;;10.70;96.30;;;;;;5416472;26;20074;-83
2024/04/18 09:00:19;;;;;;;3.95;0.30;;;10.80;95.90;;;;;;5416424;26;19991;-83
2024/04/18 09:02:46;;;;;;;5.90;0.43;;;10.80;95.40;;;;;;5418849;26;19996;-81
2024/04/18 09:05:12;;;;;;;4.78;0.47;;;10.90;95.10;;;;;;5416362;26;19996;-83
2024/04/18 09:07:37;;;;;;;1.13;0.30;;;10.90;94.70;;;;;;5417754;26;20355;-82
2024/04/18 09:10:07;;;;;;;4.13;0.35;;;11.00;94.40;;;;;;5418024;26;20451;-83
2024/04/18 09:12:34;;;;;;;1.75;0.25;;;11.00;94.10;;;;;;5416010;26;20023;-78
2024/04/18 09:15:00;;;;;;;4.25;0.40;;;11.20;93.70;;;;;;5418203;26;19996;-83
2024/04/18 09:17:27;;;;;;;1.48;0.35;;;11.20;93.30;;;;;;5418271;26;20463;-82
2024/04/18 09:19:52;;;;;;;1.63;0.32;;;11.30;93.00;;;;;;5418101;26;19995;-83
2024/04/18 09:22:21;;;;;;;2.72;0.30;;;11.40;92.70;;;;;;5416124;26;19999;-83
2024/04/18 09:24:47;;;;;;;0.55;0.20;;;11.40;92.30;;;;;;5446888;26;20040;-82
2024/04/18 09:27:13;;;;;;;2.80;0.30;;;11.60;92.00;;;;;;5420074;26;19999;-80
2024/04/18 09:29:40;;;;;;;3.92;0.30;;;11.60;91.60;;;;;;5420508;26;20405;-81
2024/04/18 09:32:06;;;;;;;2.60;0.20;;;11.80;91.30;;;;;;5419746;26;19996;-81
2024/04/18 09:34:34;;;;;;;1.27;0.25;;;11.90;91.00;;;;;;5416218;26;19997;-81
2024/04/18 09:37:07;;;;;;;1.75;0.30;;;11.90;90.60;;;;;;5416435;26;20000;-81
2024/04/18 09:39:34;;;;;;;1.95;0.40;;;12.00;90.10;;;;;;5449885;26;20022;-81
2024/04/18 09:42:16;;;;;;;2.63;0.40;;;12.10;89.70;;;;;;5417853;26;20039;-82
2024/04/18 09:44:52;;;;;;;3.30;0.50;;;12.10;89.20;;;;;;5416545;26;20085;-81
2024/04/18 09:47:18;;;;;;;2.22;0.50;;;12.10;88.80;;;;;;5418736;26;20022;-81
2024/04/18 09:49:44;;;;;;;5.18;0.40;;;12.20;88.70;;;;;;5417284;26;20003;-81
2024/04/18 09:52:12;;;;;;;2.42;0.40;;;12.20;88.40;;;;;;5446421;26;20014;-82
2024/04/18 09:54:40;;;;;;;1.40;0.30;;;12.20;88.00;;;;;;5416954;26;19996;-82
2024/04/18 09:57:06;;;;;;;2.00;0.40;;;12.20;87.40;;;;;;5416401;26;20375;-82
2024/04/18 09:59:33;;;;;;;3.20;0.40;;;12.20;87.00;;;;;;5417176;26;20004;-82
2024/04/18 10:02:00;;;;;;;1.42;0.40;;;12.10;86.40;;;;;;5416338;26;20007;-79
2024/04/18 10:04:27;;;;;;;0.93;0.30;;;12.10;85.40;;;;;;5418952;26;20010;-82
2024/04/18 10:06:54;;;;;;;2.40;0.20;;;12.10;84.80;;;;;;5417564;26;20020;-81
2024/04/18 10:09:23;;;;;;;2.42;0.30;;;12.10;84.40;;;;;;5415187;26;20004;-80
2024/04/18 10:11:51;;;;;;;2.42;0.30;;;12.00;83.90;;;;;;5417760;26;20072;-80
2024/04/18 10:14:17;;;;;;;1.15;0.20;;;12.00;83.60;;;;;;5418681;26;20108;-80
2024/04/18 10:16:49;;;;;;;1.05;0.25;;;12.10;83.50;;;;;;5416482;26;20003;-81
2024/04/18 10:19:22;;;;;;;1.70;0.40;;;12.10;83.20;;;;;;5417665;26;20547;-80
2024/04/18 10:21:59;;;;;;;1.52;0.22;;;12.30;83.10;;;;;;5417329;26;20327;-81
2024/04/18 10:24:33;;;;;;;0.93;0.20;;;12.40;82.80;;;;;;5418869;26;20093;-80
2024/04/18 10:27:00;;;;;;;3.75;0.50;;;12.60;82.50;;;;;;5418582;26;20099;-80
2024/04/18 10:29:27;;;;;;;1.05;0.17;;;12.90;82.50;;;;;;5417590;26;20015;-82
2024/04/18 10:31:57;;;;;;;0.75;0.15;;;13.10;82.10;;;;;;5416593;26;20000;-82
2024/04/18 10:34:23;;;;;;;1.65;0.25;;;13.20;81.00;;;;;;5414825;26;20014;-81
2024/04/18 10:36:49;;;;;;;1.83;0.20;;;13.30;80.00;;;;;;5417230;26;19999;-81
2024/04/18 10:39:34;;;;;;;4.38;0.20;;;13.30;79.00;;;;;;5415450;26;20000;-83
2024/04/18 10:42:08;;;;;;;0.68;0.13;;;13.30;78.30;;;;;;5415063;26;19996;-78
2024/04/18 10:44:34;;;;;;;;;;;13.30;77.70;;;;;;5415347;26;20011;-79
2024/04/18 10:47:01;;;;;;;1.60;0.20;;;13.30;77.40;;;;;;5416283;26;19925;-78
2024/04/18 10:49:27;;;;;;;2.22;0.30;;;13.30;77.60;;;;;;5414512;26;20012;-77
2024/04/18 10:51:55;;;;;;;1.35;0.10;;;13.20;77.00;;;;;;5415611;26;20382;-78
2024/04/18 10:54:21;;;;;;;0.65;0.17;;;13.30;76.60;;;;;;5420162;26;20014;-80
2024/04/18 10:56:46;;;;;;;1.58;0.20;;;13.30;76.30;;;;;;5418462;26;19996;-78
2024/04/18 10:59:12;;;;;;;1.00;0.28;;;13.30;75.60;;;;;;5419900;26;20003;-77
2024/04/18 11:01:39;;;;;;;1.13;0.30;;;13.30;75.00;;;;;;5420157;26;20019;-84
2024/04/18 11:04:05;;;;;;;1.83;0.17;;;13.30;74.50;;;;;;5420527;26;20013;-83
2024/04/18 11:06:31;;;;;;;1.27;0.20;;;13.30;74.20;;;;;;5418112;26;20004;-82
2024/04/18 11:08:59;;;;;;;1.38;0.20;;;13.40;73.70;;;;;;5417541;26;20479;-83
2024/04/18 11:11:31;;;;;;;3.22;0.30;;;13.50;73.30;;;;;;5420054;26;20003;-84
2024/04/18 11:13:58;;;;;;;0.50;0.10;;;13.60;73.00;;;;;;5420286;26;19992;-85
2024/04/18 11:16:26;;;;;;;1.42;0.15;;;13.80;72.50;;;;;;5420737;26;20511;-79
2024/04/18 11:18:56;;;;;;;0.85;0.10;;;14.10;72.10;;;;;;5417948;26;20443;-78
2024/04/18 11:21:24;;;;;;;1.42;0.10;;;14.30;71.20;;;;;;5418192;26;20018;-87
2024/04/18 11:23:56;;;;;;;0.73;0.20;;;14.40;70.30;;;;;;5417801;26;19995;-78
2024/04/18 11:26:22;;;;;;;2.55;0.20;;;14.50;69.30;;;;;;5417601;26;20004;-78
2024/04/18 11:28:52;;;;;;;1.00;0.20;;;14.70;69.00;;;;;;5447584;26;20004;-77
2024/04/18 11:31:18;;;;;;;1.60;0.40;;;14.90;68.50;;;;;;5419635;26;20004;-77
2024/04/18 11:33:44;;;;;;;2.55;0.52;;;15.20;68.10;;;;;;5417657;26;20491;-83
2024/04/18 11:36:10;;;;;;;1.23;0.20;;;15.30;67.00;;;;;;5419731;26;20466;-80
2024/04/18 11:38:37;;;;;;;1.02;0.17;;;15.40;66.30;;;;;;5417573;26;20077;-83
2024/04/18 11:41:03;;;;;;;1.35;0.22;;;15.40;66.00;;;;;;5417779;26;20011;-84
2024/04/18 11:43:28;;;;;;;2.17;0.20;;;15.50;65.70;;;;;;5419437;26;19999;-84
2024/04/18 11:45:54;;;;;;;1.63;0.30;;;15.50;65.10;;;;;;5418190;26;20327;-85
2024/04/18 11:48:20;;;;;;;1.27;0.20;;;15.50;64.70;;;;;;5417489;26;20027;-84
2024/04/18 11:50:46;;;;;;;2.80;0.35;;;15.60;64.50;;;;;;5417620;26;20022;-83
2024/04/18 11:53:11;;;;;;;2.72;0.30;;;15.60;64.30;;;;;;5447801;26;20029;-85
2024/04/18 11:55:37;;;;;;;2.63;0.30;;;15.60;64.10;;;;;;5419784;26;20079;-85
2024/04/18 11:58:03;;;;;;;3.83;0.30;;;15.70;63.90;;;;;;5418958;26;20007;-81
2024/04/18 12:00:29;;;;;;;1.42;0.20;;;15.70;63.60;;;;;;5420495;26;20011;-81
2024/04/18 12:02:55;;;;;;;2.45;0.20;;;15.80;63.50;;;;;;5448642;26;20014;-82
2024/04/18 12:05:22;;;;;;;1.80;0.40;;;16.00;63.20;;;;;;5421378;26;20000;-83
2024/04/18 12:07:48;;;;;;;1.35;0.20;;;16.20;62.70;;;;;;5418842;26;19996;-81
2024/04/18 12:10:13;;;;;;;1.50;0.20;;;16.60;62.40;;;;;;5422369;26;20014;-81
2024/04/18 12:12:39;;;;;;;1.67;0.20;;;16.80;61.90;;;;;;5449756;26;19995;-82
2024/04/18 12:15:05;;;;;;;0.80;0.20;;;17.10;61.30;;;;;;5448899;26;20000;-81
2024/04/18 12:17:30;;;;;;;2.13;0.28;;;17.30;60.40;;;;;;5416960;26;20007;-78
2024/04/18 12:19:56;;;;;;;2.40;0.20;;;17.50;59.70;;;;;;5418741;26;20081;-76
2024/04/18 12:22:22;;;;;;;1.80;0.20;;;17.70;59.00;;;;;;5416746;26;20028;-82
2024/04/18 12:24:47;;;;;;;2.75;0.50;;;17.90;58.30;;;;;;5418799;26;20101;-78
2024/04/18 12:27:13;;;;;;;0.82;0.30;;;18.10;57.10;;;;;;5418803;26;20007;-83
2024/04/18 12:29:39;;;;;;;1.80;0.20;;;18.20;56.40;;;;;;5418749;26;20447;-86
2024/04/18 12:32:06;;;;;;;1.70;0.22;;;18.20;55.90;;;;;;5418413;26;20010;-81
2024/04/18 12:34:32;;;;;;;1.80;0.20;;;18.40;55.80;;;;;;5446262;26;20019;-77
2024/04/18 12:36:57;;;;;;;1.08;0.20;;;18.60;55.70;;;;;;5446524;26;19999;-82
2024/04/18 12:39:23;;;;;;;2.08;0.30;;;18.90;55.50;;;;;;5419118;26;20354;-78
2024/04/18 12:41:49;;;;;;;0.88;0.25;;;19.10;54.90;;;;;;5418285;26;20354;-81
2024/04/18 12:44:14;;;;;;;0.75;0.20;;;19.20;54.30;;;;;;5416395;26;20339;-76
2024/04/18 12:46:40;;;;;;;1.92;0.20;;;19.20;53.90;;;;;;5418383;26;19999;-78
2024/04/18 12:49:06;;;;;;;1.17;0.40;;;19.20;53.90;;;;;;5418549;26;20003;-77
2024/04/18 12:51:34;;;;;;;1.25;0.30;;;19.30;53.70;;;;;;5416194;26;20076;-79